Captainj.neofotistos — D5HE2 — position and weather

sailwx.info

Track history (hours):
 
Tides and Currents Weather Stations Pressure Air Temp Water Temp Dewpoint Dewpoint Depression Visibility Wind Speed Wind Dir Waves Ship Positions

Captainj.neofotistos

Last reported at 2018-Feb-15 17:11 UTC. Time now 2018-Feb-24 22:10 UTC.
Position N 01°15' E 104°02'.
Warning: this ship's position is 9 days out of date.

Length 229 m; draft 13.1 m.

Type: Ship. MMSI: 636016657.

Date/timePositionNaut miles runAvg speedWind from/ knotsBaromVisibWave heightAir tempDewpointWater temp
2018-Feb-15 17:11N 01°15' E 104°02'311.1
2018-Feb-15 16:56N 01°14' E 103°59'511.1
2018-Feb-15 16:30N 01°13' E 103°54'510.3
2018-Feb-15 16:00N 01°10' E 103°50'510.0
2018-Feb-15 15:30N 01°08' E 103°46'510.4
2018-Feb-15 15:00N 01°04' E 103°42'5 9.9
2018-Feb-15 14:30N 01°04' E 103°37'612.4
2018-Feb-15 14:00N 01°07' E 103°31'612.1
2018-Feb-15 13:31N 01°10' E 103°26'611.8
2018-Feb-15 13:00N 01°14' E 103°21'2212.1
2018-Feb-15 11:09N 01°27' E 103°04'  
Track history (hours):
 
Tides and Currents Weather Stations Pressure Air Temp Water Temp Dewpoint Dewpoint Depression Visibility Wind Speed Wind Dir Waves Ship Positions

Captainj.neofotistos

Last reported at 2018-Feb-15 17:11 UTC. Time now 2018-Feb-24 22:10 UTC.
Position N 01°15' E 104°02'.
Warning: this ship's position is 9 days out of date.

Length 229 m; draft 13.1 m.

Type: Ship. MMSI: 636016657.

Date/timePositionNaut miles runAvg speedWind from/ knotsBaromVisibWave heightAir tempDewpointWater temp
2018-Feb-15 17:11N 01°15' E 104°02'311.1
2018-Feb-15 16:56N 01°14' E 103°59'511.1
2018-Feb-15 16:30N 01°13' E 103°54'510.3
2018-Feb-15 16:00N 01°10' E 103°50'510.0
2018-Feb-15 15:30N 01°08' E 103°46'510.4
2018-Feb-15 15:00N 01°04' E 103°42'5 9.9
2018-Feb-15 14:30N 01°04' E 103°37'612.4
2018-Feb-15 14:00N 01°07' E 103°31'612.1
2018-Feb-15 13:31N 01°10' E 103°26'611.8
2018-Feb-15 13:00N 01°14' E 103°21'2212.1
2018-Feb-15 11:09N 01°27' E 103°04'  

Dump ship's entire track history